Time;durP1;ratioP1;P1;durP2;ratioP2;P2;SDS_P1;SDS_P2;PMS_P1;PMS_P2;Temp;Humidity;BMP_temperature;BMP_pressure;BME280_temperature;BME280_humidity;BME280_pressure;Samples;Min_cycle;Max_cycle;Signal;HPM_P1;HPM_P2
2021/04/26 00:02:13;;;;;;;9.07;3.05;;;5.00;82.10;;;;;;4913261;29;20107;-64
2021/04/26 00:04:38;;;;;;;9.38;2.75;;;5.00;82.20;;;;;;4914859;29;20031;-65
2021/04/26 00:07:04;;;;;;;11.07;3.80;;;5.00;82.20;;;;;;4914611;29;20032;-64
2021/04/26 00:09:31;;;;;;;6.65;2.55;;;4.90;82.10;;;;;;4913927;29;20051;-64
2021/04/26 00:11:57;;;;;;;9.32;2.65;;;4.90;82.20;;;;;;4914694;29;20422;-64
2021/04/26 00:14:23;;;;;;;5.80;2.42;;;4.90;82.10;;;;;;4914959;29;20091;-64
2021/04/26 00:16:48;;;;;;;11.23;2.63;;;4.90;82.20;;;;;;4913852;29;20056;-64
2021/04/26 00:19:14;;;;;;;10.18;3.00;;;4.90;82.10;;;;;;4914700;29;20032;-64
2021/04/26 00:21:40;;;;;;;11.52;2.58;;;4.90;82.00;;;;;;4914427;29;20028;-65
2021/04/26 00:24:06;;;;;;;6.75;2.33;;;4.90;81.90;;;;;;4913775;29;20071;-65
2021/04/26 00:26:32;;;;;;;10.20;3.08;;;4.80;81.80;;;;;;4913308;29;20020;-65
2021/04/26 00:28:57;;;;;;;8.68;3.05;;;4.80;81.70;;;;;;4914324;29;20515;-65
2021/04/26 00:31:23;;;;;;;12.20;3.35;;;4.80;81.90;;;;;;4914131;29;20079;-64
2021/04/26 00:33:48;;;;;;;8.75;3.15;;;4.80;81.90;;;;;;4914233;29;20043;-64
2021/04/26 00:36:14;;;;;;;9.30;5.65;;;4.80;82.00;;;;;;4912606;29;20112;-63
2021/04/26 00:38:39;;;;;;;11.40;3.80;;;4.70;81.80;;;;;;4914130;29;20091;-63
2021/04/26 00:41:05;;;;;;;7.75;2.80;;;4.70;82.00;;;;;;4914144;29;20025;-63
2021/04/26 00:43:31;;;;;;;6.10;2.35;;;4.70;81.90;;;;;;4913601;29;20481;-63
2021/04/26 00:45:56;;;;;;;8.07;2.60;;;4.60;81.80;;;;;;4913502;29;20040;-63
2021/04/26 00:48:22;;;;;;;12.05;2.55;;;4.60;81.80;;;;;;4914369;29;20540;-63
2021/04/26 00:50:47;;;;;;;12.13;2.75;;;4.60;81.90;;;;;;4913337;29;20035;-65
2021/04/26 00:53:13;;;;;;;9.60;2.90;;;4.60;82.00;;;;;;4913390;29;20056;-63
2021/04/26 00:55:40;;;;;;;10.30;2.35;;;4.60;82.10;;;;;;4914236;29;20024;-64
2021/04/26 00:58:07;;;;;;;8.07;2.85;;;4.60;82.10;;;;;;4913544;29;20028;-65
2021/04/26 01:00:33;;;;;;;7.47;2.58;;;4.60;82.30;;;;;;4913861;29;20489;-64
2021/04/26 01:02:59;;;;;;;11.80;5.93;;;4.50;82.50;;;;;;4914149;29;20032;-64
2021/04/26 01:05:28;;;;;;;17.35;10.82;;;4.50;82.50;;;;;;4913440;29;20067;-63
2021/04/26 01:07:54;;;;;;;7.75;2.72;;;4.40;82.40;;;;;;4913657;29;20036;-65
2021/04/26 01:10:23;;;;;;;8.68;2.80;;;4.40;82.60;;;;;;4913145;29;20028;-64
2021/04/26 01:13:22;;;;;;;5.30;3.00;;;4.40;82.60;;;;;;4913314;29;20021;-64
2021/04/26 01:16:15;;;;;;;8.38;2.75;;;4.40;82.70;;;;;;4913336;29;20044;-65
2021/04/26 01:19:25;;;;;;;8.43;2.83;;;4.40;82.90;;;;;;4913308;29;20039;-64
2021/04/26 01:22:04;;;;;;;6.05;2.70;;;4.40;82.90;;;;;;4912705;29;20115;-64
2021/04/26 01:24:48;;;;;;;14.23;7.78;;;4.40;82.80;;;;;;4914121;29;20397;-64
2021/04/26 01:27:42;;;;;;;8.30;4.07;;;4.40;82.90;;;;;;4912278;29;20039;-64
2021/04/26 01:30:10;;;;;;;8.35;4.97;;;4.40;82.90;;;;;;4912614;29;20043;-64
2021/04/26 01:32:43;;;;;;;7.63;2.45;;;4.30;83.10;;;;;;4913377;29;20048;-65
2021/04/26 01:35:14;;;;;;;9.77;3.90;;;4.30;83.00;;;;;;4914096;29;20032;-66
2021/04/26 01:37:42;;;;;;;8.60;2.63;;;4.30;83.40;;;;;;4912392;29;20536;-65
2021/04/26 01:40:11;;;;;;;6.95;2.47;;;4.30;83.00;;;;;;4913241;29;20028;-65
2021/04/26 01:42:38;;;;;;;10.02;2.33;;;4.30;82.90;;;;;;4913950;29;20030;-65
2021/04/26 01:45:07;;;;;;;7.75;2.58;;;4.30;82.90;;;;;;4913618;29;20273;-65
2021/04/26 01:47:34;;;;;;;5.80;2.67;;;4.30;83.00;;;;;;4913186;29;20381;-66
2021/04/26 01:50:03;;;;;;;12.23;5.40;;;4.30;83.10;;;;;;4913569;29;20036;-64
2021/04/26 01:52:28;;;;;;;5.47;2.42;;;4.30;83.20;;;;;;4913571;29;20024;-64
2021/04/26 01:54:56;;;;;;;5.65;2.60;;;4.30;83.30;;;;;;4912668;29;20031;-64
2021/04/26 01:57:22;;;;;;;8.48;4.93;;;4.30;83.50;;;;;;4914982;29;20052;-63
2021/04/26 01:59:48;;;;;;;9.55;3.85;;;4.20;83.30;;;;;;4916655;29;20069;-64
2021/04/26 02:02:16;;;;;;;10.70;3.97;;;4.20;83.30;;;;;;4916582;29;20060;-64
2021/04/26 02:04:43;;;;;;;15.60;3.78;;;4.20;83.30;;;;;;4916932;29;20028;-65
2021/04/26 02:07:09;;;;;;;5.90;2.85;;;4.20;83.30;;;;;;4916916;29;20503;-64
2021/04/26 02:09:39;;;;;;;8.05;2.90;;;4.20;83.30;;;;;;4916152;29;20113;-62
2021/04/26 02:12:06;;;;;;;6.55;2.58;;;4.20;83.30;;;;;;4916918;29;20080;-65
2021/04/26 02:14:33;;;;;;;8.02;3.83;;;4.20;83.30;;;;;;4916189;29;20494;-66
2021/04/26 02:16:59;;;;;;;6.85;2.53;;;4.20;83.30;;;;;;4916581;29;20024;-65
2021/04/26 02:19:25;;;;;;;4.78;2.47;;;4.20;83.30;;;;;;4917120;29;20028;-65
2021/04/26 02:21:50;;;;;;;5.75;2.78;;;4.20;83.30;;;;;;4915760;29;20079;-65
2021/04/26 02:24:16;;;;;;;6.68;2.80;;;4.20;83.20;;;;;;4917011;29;20039;-65
2021/04/26 02:26:41;;;;;;;5.10;2.55;;;4.20;83.50;;;;;;4916684;29;20020;-64
2021/04/26 02:29:08;;;;;;;11.77;3.20;;;4.10;83.50;;;;;;4915620;29;20397;-64
2021/04/26 02:31:35;;;;;;;9.07;4.65;;;4.10;83.50;;;;;;4916701;29;20445;-64
2021/04/26 02:34:14;;;;;;;9.55;4.22;;;4.10;83.50;;;;;;4916243;29;20111;-64
2021/04/26 02:36:43;;;;;;;7.38;2.75;;;4.10;83.40;;;;;;4915739;29;20028;-64
2021/04/26 02:39:12;;;;;;;7.57;2.47;;;4.10;83.40;;;;;;4916735;29;20039;-64
2021/04/26 02:41:43;;;;;;;5.65;4.32;;;4.10;83.50;;;;;;4916347;29;20020;-64
2021/04/26 02:44:14;;;;;;;4.93;2.40;;;4.10;83.50;;;;;;4914714;29;20028;-66
2021/04/26 02:46:41;;;;;;;5.85;2.10;;;4.10;83.40;;;;;;4916393;29;20035;-64
2021/04/26 02:49:08;;;;;;;9.15;2.67;;;4.10;83.30;;;;;;4915755;29;20040;-64
2021/04/26 02:51:35;;;;;;;6.45;2.72;;;4.10;83.30;;;;;;4915695;29;20079;-64
2021/04/26 02:54:02;;;;;;;7.15;2.38;;;4.10;83.20;;;;;;4915903;29;20055;-64
2021/04/26 02:56:29;;;;;;;8.25;2.33;;;4.10;83.20;;;;;;4914944;29;20430;-64
2021/04/26 02:58:57;;;;;;;8.07;4.05;;;4.10;83.20;;;;;;4913487;29;20028;-65
2021/04/26 03:01:24;;;;;;;7.65;2.10;;;4.10;83.20;;;;;;4916318;29;20032;-65
2021/04/26 03:03:51;;;;;;;9.57;2.78;;;4.10;83.50;;;;;;4914933;29;20028;-65
2021/04/26 03:06:17;;;;;;;6.70;2.55;;;4.10;83.40;;;;;;4916139;29;20031;-66
2021/04/26 03:08:43;;;;;;;5.63;2.40;;;4.10;83.50;;;;;;4915207;29;20036;-65
2021/04/26 03:11:11;;;;;;;8.43;2.22;;;4.00;83.50;;;;;;4915607;29;20445;-64
2021/04/26 03:13:39;;;;;;;9.27;2.30;;;4.00;83.60;;;;;;4915881;29;20024;-64
2021/04/26 03:16:05;;;;;;;6.13;2.78;;;4.00;83.70;;;;;;4915622;29;20032;-65
2021/04/26 03:18:32;;;;;;;9.60;2.60;;;4.00;83.90;;;;;;4914865;29;20132;-64
2021/04/26 03:21:00;;;;;;;4.57;2.47;;;4.00;84.00;;;;;;4915454;29;20103;-66
2021/04/26 03:23:27;;;;;;;9.93;2.45;;;3.90;84.00;;;;;;4915842;29;20095;-64
2021/04/26 03:25:57;;;;;;;11.77;6.60;;;3.90;84.20;;;;;;4914632;29;20103;-64
2021/04/26 03:28:24;;;;;;;9.38;3.75;;;3.90;84.40;;;;;;4915546;29;20032;-64
2021/04/26 03:30:50;;;;;;;6.90;3.05;;;3.90;84.60;;;;;;4913943;29;20028;-63
2021/04/26 03:33:16;;;;;;;9.65;3.10;;;3.90;84.80;;;;;;4914783;29;20032;-64
2021/04/26 03:35:43;;;;;;;6.43;2.60;;;3.80;84.80;;;;;;4915351;29;20039;-64
2021/04/26 03:38:12;;;;;;;6.75;2.42;;;3.80;85.00;;;;;;4915465;29;20020;-64
2021/04/26 03:40:38;;;;;;;8.18;2.90;;;3.80;85.20;;;;;;4913245;29;20031;-63
2021/04/26 03:43:04;;;;;;;7.40;3.47;;;3.80;85.50;;;;;;4915227;29;20027;-64
2021/04/26 03:45:31;;;;;;;7.72;2.83;;;3.70;85.50;;;;;;4915281;29;20615;-65
2021/04/26 03:47:56;;;;;;;6.03;2.40;;;3.70;85.60;;;;;;4913906;29;20072;-64
2021/04/26 03:50:24;;;;;;;6.43;2.47;;;3.70;85.80;;;;;;4915411;29;20409;-63
2021/04/26 03:52:50;;;;;;;8.40;2.58;;;3.70;85.90;;;;;;4913448;29;20028;-63
2021/04/26 03:55:19;;;;;;;7.38;2.42;;;3.70;86.00;;;;;;4914630;29;20051;-63
2021/04/26 03:57:45;;;;;;;6.57;2.72;;;3.70;86.20;;;;;;4914545;29;20020;-63
2021/04/26 04:00:11;;;;;;;8.32;2.65;;;3.70;86.20;;;;;;4914490;29;20044;-63
2021/04/26 04:02:38;;;;;;;7.28;2.75;;;3.70;86.30;;;;;;4914702;29;20036;-63
2021/04/26 04:05:06;;;;;;;9.02;3.20;;;3.70;86.40;;;;;;4914614;29;20032;-63
2021/04/26 04:07:32;;;;;;;13.23;4.03;;;3.60;86.60;;;;;;4914501;29;20038;-63
2021/04/26 04:09:57;;;;;;;8.43;2.60;;;3.60;86.80;;;;;;4914607;29;20114;-62
2021/04/26 04:12:23;;;;;;;7.18;2.70;;;3.60;86.90;;;;;;4914971;29;20024;-63
2021/04/26 04:14:48;;;;;;;8.10;2.38;;;3.60;87.00;;;;;;4913727;29;20526;-64
2021/04/26 04:17:14;;;;;;;10.15;2.67;;;3.60;87.10;;;;;;4914655;29;20032;-63
2021/04/26 04:19:41;;;;;;;7.18;2.65;;;3.60;87.20;;;;;;4914544;29;20084;-63
2021/04/26 04:22:07;;;;;;;7.18;2.55;;;3.60;87.20;;;;;;4910995;29;20035;-64
2021/04/26 04:24:32;;;;;;;10.93;4.53;;;3.60;87.50;;;;;;4912786;29;20020;-65
2021/04/26 04:26:58;;;;;;;7.65;2.88;;;3.60;87.60;;;;;;4912584;29;20389;-63
2021/04/26 04:29:23;;;;;;;6.65;2.70;;;3.60;87.70;;;;;;4909298;29;20095;-62
2021/04/26 04:31:49;;;;;;;8.50;2.75;;;3.60;87.70;;;;;;4912973;29;20094;-63
2021/04/26 04:34:14;;;;;;;7.53;3.25;;;3.60;87.60;;;;;;4898099;29;20037;-63
2021/04/26 04:36:40;;;;;;;11.48;4.07;;;3.60;87.70;;;;;;4894792;29;20029;-62
2021/04/26 04:39:06;;;;;;;7.47;2.75;;;3.70;87.70;;;;;;4895542;29;20540;-65
2021/04/26 04:41:31;;;;;;;7.60;2.60;;;3.70;87.70;;;;;;4895470;29;20020;-65
2021/04/26 04:43:59;;;;;;;7.90;2.78;;;3.70;87.60;;;;;;4894570;29;20104;-64
2021/04/26 04:46:25;;;;;;;10.35;3.05;;;3.70;87.60;;;;;;4895582;29;20373;-65
2021/04/26 04:48:50;;;;;;;9.05;2.85;;;3.80;87.50;;;;;;4893357;29;20099;-64
2021/04/26 04:51:16;;;;;;;8.48;3.35;;;3.80;87.40;;;;;;4895187;29;20021;-65
2021/04/26 04:53:41;;;;;;;9.25;2.85;;;3.80;87.30;;;;;;4895459;29;20028;-65
2021/04/26 04:56:07;;;;;;;6.40;2.90;;;3.90;87.20;;;;;;4895325;29;20457;-65
2021/04/26 04:58:32;;;;;;;9.70;2.75;;;3.90;87.10;;;;;;4894868;29;20013;-65
2021/04/26 05:00:58;;;;;;;8.90;2.90;;;4.00;87.10;;;;;;4895013;29;20430;-64
2021/04/26 05:03:24;;;;;;;9.18;3.22;;;4.00;87.10;;;;;;4894692;29;20437;-64
2021/04/26 05:05:49;;;;;;;6.47;2.15;;;4.10;87.20;;;;;;4894968;29;20036;-65
2021/04/26 05:08:15;;;;;;;10.70;3.88;;;4.00;87.20;;;;;;4895333;29;20497;-65
2021/04/26 05:10:40;;;;;;;7.20;2.45;;;4.10;87.10;;;;;;4894663;29;20140;-64
2021/04/26 05:13:06;;;;;;;7.80;2.80;;;4.10;86.90;;;;;;4895264;29;20039;-65
2021/04/26 05:15:31;;;;;;;10.82;2.58;;;4.10;86.80;;;;;;4894125;29;20488;-65
2021/04/26 05:17:57;;;;;;;9.25;4.57;;;4.20;87.30;;;;;;4894204;29;20390;-65
2021/04/26 05:20:23;;;;;;;7.55;3.28;;;4.20;86.80;;;;;;4895246;29;20381;-65
2021/04/26 05:22:49;;;;;;;5.88;2.55;;;4.20;86.50;;;;;;4894901;29;20075;-65
2021/04/26 05:25:15;;;;;;;15.38;8.02;;;4.30;86.50;;;;;;4895328;29;20936;-67
2021/04/26 05:27:41;;;;;;;11.02;2.88;;;4.30;86.50;;;;;;4906814;29;20027;-66
2021/04/26 05:30:08;;;;;;;10.32;2.85;;;4.30;86.50;;;;;;4910989;29;20044;-66
2021/04/26 05:32:34;;;;;;;11.60;3.83;;;4.40;86.60;;;;;;4914544;29;20526;-65
2021/04/26 05:34:59;;;;;;;8.25;2.92;;;4.40;86.80;;;;;;4916999;29;20059;-66
2021/04/26 05:37:25;;;;;;;6.82;2.72;;;4.50;86.80;;;;;;4917547;29;20430;-66
2021/04/26 05:39:50;;;;;;;10.52;3.20;;;4.50;86.70;;;;;;4916552;29;20020;-67
2021/04/26 05:42:17;;;;;;;9.88;2.88;;;4.60;86.60;;;;;;4916324;29;20473;-65
2021/04/26 05:44:43;;;;;;;10.68;2.90;;;4.70;86.60;;;;;;4917154;29;20047;-65
2021/04/26 05:47:09;;;;;;;7.68;3.80;;;4.80;86.30;;;;;;4899858;29;20056;-65
2021/04/26 05:49:34;;;;;;;9.02;3.10;;;4.90;86.10;;;;;;4917050;29;20116;-65
2021/04/26 05:52:00;;;;;;;5.90;2.28;;;5.00;85.70;;;;;;4916879;29;20024;-67
2021/04/26 05:54:25;;;;;;;9.30;2.80;;;5.00;85.20;;;;;;4915614;29;20119;-66
2021/04/26 05:56:52;;;;;;;11.52;4.47;;;5.10;85.50;;;;;;4912006;29;20024;-64
2021/04/26 05:59:18;;;;;;;7.10;3.08;;;5.20;84.80;;;;;;4917019;29;20437;-64
2021/04/26 06:01:43;;;;;;;7.32;2.80;;;5.30;84.40;;;;;;4916338;29;20039;-65
2021/04/26 06:04:09;;;;;;;5.32;2.47;;;5.40;84.20;;;;;;4917027;29;20063;-65
2021/04/26 06:06:34;;;;;;;9.90;4.30;;;5.50;83.70;;;;;;4916517;29;20542;-64
2021/04/26 06:09:00;;;;;;;8.82;3.00;;;5.60;83.50;;;;;;4915991;29;20036;-66
2021/04/26 06:11:26;;;;;;;9.00;3.20;;;5.70;82.90;;;;;;4916855;29;20459;-65
2021/04/26 06:13:51;;;;;;;7.53;2.55;;;5.70;82.60;;;;;;4911724;29;20334;-65
2021/04/26 06:16:17;;;;;;;4.88;2.20;;;5.80;82.10;;;;;;4916810;29;20020;-65
2021/04/26 06:18:42;;;;;;;6.63;2.65;;;5.90;81.90;;;;;;4916564;29;20028;-67
2021/04/26 06:21:08;;;;;;;10.85;3.30;;;6.00;82.00;;;;;;4915663;29;20503;-65
2021/04/26 06:23:34;;;;;;;8.55;2.60;;;6.00;81.40;;;;;;4916703;29;20502;-65
2021/04/26 06:25:59;;;;;;;9.60;2.33;;;6.10;80.90;;;;;;4916362;29;20040;-67
2021/04/26 06:28:25;;;;;;;6.90;2.90;;;6.20;80.60;;;;;;4914746;29;20043;-65
2021/04/26 06:30:50;;;;;;;5.80;2.30;;;6.30;80.20;;;;;;4915564;29;20028;-64
2021/04/26 06:33:16;;;;;;;8.63;2.97;;;6.40;80.70;;;;;;4916589;29;20047;-65
2021/04/26 06:35:46;;;;;;;6.25;2.50;;;6.40;79.80;;;;;;4915499;29;20036;-66
2021/04/26 06:38:12;;;;;;;7.93;4.28;;;6.50;79.90;;;;;;4916183;29;20083;-65
2021/04/26 06:40:38;;;;;;;7.93;2.55;;;6.60;79.70;;;;;;4916182;29;20092;-64
2021/04/26 06:43:04;;;;;;;10.82;2.95;;;6.70;78.80;;;;;;4914798;29;20032;-65
2021/04/26 06:45:30;;;;;;;4.88;2.28;;;6.70;77.40;;;;;;4915534;29;20119;-64
2021/04/26 06:47:56;;;;;;;3.13;2.08;;;6.80;76.90;;;;;;4915512;29;20473;-66
2021/04/26 06:50:22;;;;;;;8.93;2.65;;;6.90;76.80;;;;;;4913810;29;20024;-66
2021/04/26 06:52:50;;;;;;;5.13;2.10;;;6.90;76.90;;;;;;4915547;29;20024;-66
2021/04/26 06:55:17;;;;;;;5.68;2.10;;;7.00;76.70;;;;;;4916211;29;20031;-67
2021/04/26 06:57:43;;;;;;;5.38;2.40;;;7.10;76.10;;;;;;4915282;29;20079;-66
2021/04/26 07:00:11;;;;;;;7.82;2.75;;;7.10;75.80;;;;;;4914327;29;20556;-66
2021/04/26 07:02:36;;;;;;;5.57;2.40;;;7.20;75.60;;;;;;4915965;29;20096;-67
2021/04/26 07:05:04;;;;;;;3.70;1.92;;;7.30;75.10;;;;;;4914579;29;20369;-66
2021/04/26 07:07:29;;;;;;;4.80;2.08;;;7.40;75.00;;;;;;4915640;29;20396;-67
2021/04/26 07:09:55;;;;;;;7.72;3.05;;;7.60;74.30;;;;;;4914420;29;20040;-66
2021/04/26 07:12:21;;;;;;;6.18;2.10;;;7.70;74.30;;;;;;4916079;29;20032;-67
2021/04/26 07:14:47;;;;;;;6.07;2.00;;;7.80;73.40;;;;;;4915503;29;20028;-67
2021/04/26 07:17:12;;;;;;;4.25;2.15;;;7.90;72.10;;;;;;4915287;29;20031;-65
2021/04/26 07:19:38;;;;;;;3.67;1.92;;;8.00;71.50;;;;;;4915322;29;20512;-66
2021/04/26 07:22:03;;;;;;;2.60;1.77;;;8.00;71.70;;;;;;4915176;29;20032;-68
2021/04/26 07:24:29;;;;;;;4.05;1.75;;;8.10;71.80;;;;;;4914926;29;20035;-68
2021/04/26 07:26:55;;;;;;;6.82;2.40;;;8.20;70.00;;;;;;4914684;29;20103;-66
2021/04/26 07:29:21;;;;;;;6.05;2.13;;;8.40;68.90;;;;;;4914283;29;20519;-67
2021/04/26 07:31:47;;;;;;;4.15;2.00;;;8.40;68.70;;;;;;4913984;29;20024;-65
2021/04/26 07:34:12;;;;;;;5.80;2.00;;;8.50;69.00;;;;;;4913894;29;20039;-67
2021/04/26 07:36:39;;;;;;;7.30;2.03;;;8.60;68.50;;;;;;4915103;29;20032;-65
2021/04/26 07:39:05;;;;;;;6.93;2.42;;;8.70;68.10;;;;;;4913918;29;20415;-65
2021/04/26 07:41:31;;;;;;;5.63;2.75;;;8.70;67.20;;;;;;4915370;29;20036;-64
2021/04/26 07:43:57;;;;;;;8.88;2.22;;;8.70;67.90;;;;;;4912865;29;20039;-68
2021/04/26 07:46:22;;;;;;;3.08;1.80;;;8.80;67.40;;;;;;4914674;29;20059;-68
2021/04/26 07:48:48;;;;;;;3.72;2.30;;;8.90;67.00;;;;;;4914769;29;20119;-65
2021/04/26 07:51:13;;;;;;;4.50;2.38;;;8.90;66.50;;;;;;4915178;29;20032;-66
2021/04/26 07:53:39;;;;;;;4.63;2.20;;;8.90;66.60;;;;;;4914150;29;20555;-66
2021/04/26 07:56:05;;;;;;;3.92;2.05;;;9.00;65.90;;;;;;4914737;29;20031;-68
2021/04/26 07:58:31;;;;;;;3.72;1.77;;;9.00;65.70;;;;;;4913110;29;20124;-66
2021/04/26 08:00:57;;;;;;;4.95;2.25;;;9.10;64.30;;;;;;4913878;29;20083;-67
2021/04/26 08:03:24;;;;;;;4.35;2.05;;;9.10;64.70;;;;;;4915309;29;20024;-67
2021/04/26 08:05:50;;;;;;;2.50;1.90;;;9.20;63.80;;;;;;4913160;29;20556;-68
2021/04/26 08:08:16;;;;;;;4.35;2.22;;;9.30;63.70;;;;;;4914127;29;20477;-67
2021/04/26 08:10:41;;;;;;;6.25;2.63;;;9.40;63.40;;;;;;4914871;29;20043;-65
2021/04/26 08:13:07;;;;;;;4.85;2.53;;;9.50;64.10;;;;;;4913077;29;20438;-67
2021/04/26 08:15:32;;;;;;;5.85;2.10;;;9.60;63.60;;;;;;4913008;29;20358;-65
2021/04/26 08:17:58;;;;;;;5.57;2.42;;;9.60;62.10;;;;;;4914323;29;20028;-65
2021/04/26 08:20:24;;;;;;;4.88;2.20;;;9.60;61.10;;;;;;4913726;29;20111;-65
2021/04/26 08:22:49;;;;;;;3.53;2.30;;;9.60;60.30;;;;;;4913073;29;20020;-66
2021/04/26 08:25:15;;;;;;;5.22;2.47;;;9.60;59.90;;;;;;4914535;29;20504;-64
2021/04/26 08:27:41;;;;;;;7.38;2.17;;;9.70;60.60;;;;;;4913655;29;20086;-64
2021/04/26 08:30:08;;;;;;;5.18;2.58;;;9.60;60.80;;;;;;4913942;29;20070;-65
2021/04/26 08:32:34;;;;;;;7.47;2.40;;;9.70;61.10;;;;;;4914208;29;20461;-65
2021/04/26 08:34:59;;;;;;;5.32;2.05;;;9.80;60.90;;;;;;4911937;29;20138;-65
2021/04/26 08:37:25;;;;;;;7.78;2.42;;;9.80;60.30;;;;;;4914379;29;20099;-66
2021/04/26 08:39:51;;;;;;;6.60;2.20;;;9.80;59.50;;;;;;4913950;29;20033;-66
2021/04/26 08:42:20;;;;;;;3.25;1.98;;;9.90;59.20;;;;;;4913183;29;20428;-67
2021/04/26 08:44:46;;;;;;;4.15;2.28;;;9.90;59.50;;;;;;4913142;29;20469;-67
2021/04/26 08:47:12;;;;;;;5.40;2.35;;;10.00;59.30;;;;;;4914324;29;20536;-66
2021/04/26 08:49:38;;;;;;;4.10;2.20;;;10.10;58.90;;;;;;4913785;29;20124;-66
2021/04/26 08:52:06;;;;;;;2.75;2.38;;;10.20;57.40;;;;;;4904348;29;20397;-68
2021/04/26 08:54:32;;;;;;;3.60;2.30;;;10.30;57.30;;;;;;4911424;29;20483;-68
2021/04/26 08:56:57;;;;;;;3.75;1.98;;;10.30;58.00;;;;;;4913484;29;20114;-68
2021/04/26 08:59:23;;;;;;;5.03;2.42;;;10.40;57.10;;;;;;4912961;29;20516;-65
2021/04/26 09:02:05;;;;;;;5.55;2.40;;;10.50;56.10;;;;;;4913891;29;20660;-66
2021/04/26 09:04:44;;;;;;;6.13;2.08;;;10.50;55.70;;;;;;4913424;29;20488;-67
2021/04/26 09:07:12;;;;;;;4.93;2.10;;;10.60;55.30;;;;;;4914933;29;20039;-66
2021/04/26 09:09:42;;;;;;;3.85;2.13;;;10.70;54.60;;;;;;4917333;29;20115;-65
2021/04/26 09:12:21;;;;;;;3.47;2.20;;;10.80;55.00;;;;;;4917667;29;20528;-63
2021/04/26 09:14:52;;;;;;;3.53;2.30;;;11.00;54.90;;;;;;4917070;29;20115;-62
2021/04/26 09:17:38;;;;;;;4.13;2.08;;;11.10;54.90;;;;;;4907058;29;20048;-64
2021/04/26 16:02:11;;;;;;;4.72;2.15;;;15.50;41.70;;;;;;5716246;23;20056;-66
2021/04/26 16:04:37;;;;;;;7.72;3.33;;;15.60;41.30;;;;;;4921179;29;20024;-68
2021/04/26 16:07:03;;;;;;;4.55;2.80;;;15.50;40.40;;;;;;4919519;29;20035;-67
2021/04/26 16:09:28;;;;;;;5.45;2.78;;;15.20;40.50;;;;;;4932141;29;20123;-69
2021/04/26 16:11:54;;;;;;;4.20;2.38;;;14.90;41.20;;;;;;4932975;29;20487;-70
2021/04/26 16:14:20;;;;;;;4.10;2.60;;;14.80;41.90;;;;;;4933439;29;20046;-69
2021/04/26 16:16:45;;;;;;;4.68;2.10;;;14.70;42.50;;;;;;4932491;29;20130;-68
2021/04/26 16:19:11;;;;;;;16.27;3.47;;;14.80;42.60;;;;;;4932582;29;20028;-68
2021/04/26 16:21:37;;;;;;;5.13;2.78;;;14.80;42.30;;;;;;4933312;29;20248;-67
2021/04/26 16:24:02;;;;;;;7.95;2.58;;;14.80;42.50;;;;;;4931917;29;20024;-67
2021/04/26 16:26:28;;;;;;;3.28;1.90;;;15.20;42.10;;;;;;4931838;29;20039;-67
2021/04/26 16:28:54;;;;;;;5.90;2.88;;;16.00;41.30;;;;;;4932764;29;20032;-67
2021/04/26 16:31:20;;;;;;;8.65;2.70;;;16.90;39.40;;;;;;4932841;29;20760;-68
2021/04/26 16:33:46;;;;;;;5.30;2.50;;;17.50;38.20;;;;;;4931396;29;20078;-67
2021/04/26 16:36:11;;;;;;;5.80;2.30;;;18.00;37.60;;;;;;4933555;29;20424;-67
2021/04/26 16:38:37;;;;;;;6.82;2.42;;;18.40;36.90;;;;;;4933903;29;20491;-65
2021/04/26 16:41:04;;;;;;;5.35;2.58;;;18.70;36.90;;;;;;4928518;29;20472;-66
2021/04/26 16:43:29;;;;;;;7.40;3.15;;;18.90;36.80;;;;;;4931636;29;20020;-67
2021/04/26 16:45:55;;;;;;;12.60;3.35;;;19.30;35.90;;;;;;4930915;29;20028;-66
2021/04/26 16:48:20;;;;;;;8.05;2.42;;;19.40;35.20;;;;;;4932685;29;20468;-68
2021/04/26 16:50:46;;;;;;;6.60;2.10;;;19.40;34.80;;;;;;4930092;29;20048;-67
2021/04/26 16:53:12;;;;;;;8.32;2.85;;;19.30;34.20;;;;;;4930001;29;20480;-67
2021/04/26 16:55:40;;;;;;;4.90;2.40;;;19.10;34.10;;;;;;4928444;29;20151;-68
2021/04/26 16:58:06;;;;;;;6.65;2.40;;;18.90;33.70;;;;;;4928956;29;20058;-67
2021/04/26 17:00:32;;;;;;;7.22;2.47;;;18.70;33.70;;;;;;4927977;29;20063;-67
2021/04/26 17:02:58;;;;;;;5.03;1.95;;;18.60;33.80;;;;;;4927039;29;20078;-66
2021/04/26 17:05:23;;;;;;;2.88;1.88;;;18.40;34.30;;;;;;4929270;29;20456;-67
2021/04/26 17:07:49;;;;;;;3.53;2.05;;;18.30;34.80;;;;;;4928857;29;20105;-68
2021/04/26 17:10:15;;;;;;;3.67;2.20;;;18.20;34.60;;;;;;4929500;29;20040;-65
2021/04/26 17:12:41;;;;;;;5.32;2.30;;;18.10;34.90;;;;;;4929344;29;20090;-69
2021/04/26 17:15:08;;;;;;;4.45;2.22;;;18.30;34.50;;;;;;4927896;29;20031;-68
2021/04/26 17:17:34;;;;;;;4.13;2.03;;;18.50;34.90;;;;;;4929587;29;20507;-69
2021/04/26 17:19:59;;;;;;;4.40;2.53;;;18.50;34.40;;;;;;4928311;29;20028;-67
2021/04/26 17:22:26;;;;;;;8.05;2.88;;;17.90;34.60;;;;;;4929117;29;20020;-67
2021/04/26 17:24:52;;;;;;;6.25;2.88;;;17.10;35.80;;;;;;4928869;29;20063;-67
2021/04/26 17:27:17;;;;;;;7.15;3.00;;;16.80;36.70;;;;;;4929237;29;20036;-67
2021/04/26 17:29:43;;;;;;;5.18;2.50;;;16.60;36.80;;;;;;4931854;29;20040;-67
2021/04/26 17:32:09;;;;;;;4.20;2.70;;;16.50;36.70;;;;;;4932993;29;20030;-66
2021/04/26 17:34:34;;;;;;;6.20;2.40;;;16.50;37.10;;;;;;4933157;29;20119;-68
2021/04/26 17:37:00;;;;;;;4.28;2.42;;;16.50;37.50;;;;;;4932726;29;20028;-67
2021/04/26 17:39:25;;;;;;;4.18;2.60;;;16.40;37.40;;;;;;4933007;29;20028;-67
2021/04/26 17:41:51;;;;;;;4.35;2.45;;;16.30;36.90;;;;;;4931951;29;20040;-67
2021/04/26 17:44:17;;;;;;;8.10;2.58;;;16.00;37.40;;;;;;4932156;29;20086;-68
2021/04/26 17:46:43;;;;;;;5.63;3.10;;;15.50;37.60;;;;;;4932532;29;20083;-67
2021/04/26 17:49:10;;;;;;;3.22;2.38;;;14.90;39.20;;;;;;4930582;29;20039;-67
2021/04/26 17:51:36;;;;;;;7.35;2.40;;;14.50;39.50;;;;;;4926141;29;20054;-67
2021/04/26 17:54:02;;;;;;;6.68;2.53;;;14.20;40.20;;;;;;4932625;29;20075;-67
2021/04/26 17:56:27;;;;;;;5.40;2.80;;;13.90;40.50;;;;;;4930834;29;20032;-68
2021/04/26 17:58:53;;;;;;;5.53;2.28;;;13.70;41.10;;;;;;4931266;29;20035;-66
2021/04/26 18:01:19;;;;;;;3.97;2.38;;;13.50;41.80;;;;;;4931548;29;20383;-67
2021/04/26 18:03:45;;;;;;;5.35;2.22;;;13.30;42.30;;;;;;4930955;29;20040;-67
2021/04/26 18:06:11;;;;;;;4.03;2.38;;;13.20;41.90;;;;;;4931769;29;20027;-68
2021/04/26 18:08:37;;;;;;;6.03;2.70;;;13.00;42.40;;;;;;4932297;29;20032;-68
2021/04/26 18:11:03;;;;;;;6.13;2.45;;;13.00;43.00;;;;;;4930390;29;20028;-67
2021/04/26 18:13:28;;;;;;;4.57;2.70;;;12.90;43.50;;;;;;4932105;29;20031;-68
2021/04/26 18:15:54;;;;;;;6.90;2.60;;;12.80;43.50;;;;;;4931191;29;20028;-68
2021/04/26 18:18:19;;;;;;;5.05;2.40;;;12.70;43.10;;;;;;4930952;29;20076;-67
2021/04/26 18:20:45;;;;;;;7.90;2.55;;;12.60;43.60;;;;;;4915069;29;20546;-67
2021/04/26 18:23:11;;;;;;;4.53;2.22;;;12.50;43.60;;;;;;4931740;29;20038;-67
2021/04/26 18:25:37;;;;;;;6.30;2.67;;;12.40;44.00;;;;;;4932368;29;20562;-67
2021/04/26 18:28:02;;;;;;;5.47;2.33;;;12.30;44.40;;;;;;4931613;29;20059;-66
2021/04/26 18:30:28;;;;;;;5.47;2.40;;;12.20;44.60;;;;;;4931217;29;20539;-67
2021/04/26 18:32:54;;;;;;;4.18;1.95;;;12.10;44.80;;;;;;4929935;29;20036;-68
2021/04/26 18:35:21;;;;;;;4.05;2.28;;;12.00;45.40;;;;;;4932081;29;20130;-68
2021/04/26 18:37:47;;;;;;;5.70;2.28;;;11.90;46.20;;;;;;4931511;29;20027;-68
2021/04/26 18:40:14;;;;;;;7.47;2.45;;;11.80;48.00;;;;;;4930572;29;20099;-68
2021/04/26 18:42:40;;;;;;;9.20;2.70;;;11.70;48.90;;;;;;4931882;29;20032;-66
2021/04/26 18:45:12;;;;;;;7.28;2.50;;;11.50;50.20;;;;;;4930212;29;20036;-67
2021/04/26 18:47:38;;;;;;;4.70;2.50;;;11.40;51.10;;;;;;4932059;29;20036;-67
2021/04/26 18:50:05;;;;;;;3.47;2.50;;;11.30;52.30;;;;;;4931796;29;20109;-69
2021/04/26 18:52:31;;;;;;;10.73;2.83;;;11.20;53.10;;;;;;4931058;29;20039;-66
2021/04/26 18:54:57;;;;;;;6.93;2.83;;;11.10;53.20;;;;;;4931543;29;20034;-67
2021/04/26 18:57:23;;;;;;;8.23;3.25;;;11.00;53.80;;;;;;4931277;29;20106;-67
2021/04/26 18:59:49;;;;;;;7.70;3.00;;;10.90;55.10;;;;;;4929389;29;20107;-66
2021/04/26 19:02:14;;;;;;;7.47;2.80;;;10.90;55.50;;;;;;4931753;29;20373;-67
2021/04/26 19:04:40;;;;;;;7.43;2.83;;;10.80;55.80;;;;;;4931087;29;20104;-67
2021/04/26 19:07:06;;;;;;;5.28;2.70;;;10.70;56.00;;;;;;4930695;29;20071;-66
2021/04/26 19:09:31;;;;;;;5.25;2.50;;;10.70;57.30;;;;;;4931674;29;20039;-67
2021/04/26 19:11:57;;;;;;;7.45;2.53;;;10.60;57.40;;;;;;4931088;29;20035;-67
2021/04/26 19:14:23;;;;;;;7.45;2.78;;;10.50;57.90;;;;;;4929733;29;20369;-67
2021/04/26 19:16:49;;;;;;;6.15;3.10;;;10.40;58.20;;;;;;4929939;29;20056;-66
2021/04/26 19:19:16;;;;;;;7.13;3.00;;;10.40;58.90;;;;;;4931166;29;20034;-67
2021/04/26 19:21:41;;;;;;;8.10;2.80;;;10.30;59.10;;;;;;4929125;29;20036;-67
2021/04/26 19:24:08;;;;;;;7.20;2.60;;;10.30;59.40;;;;;;4930850;29;20039;-69
2021/04/26 19:26:34;;;;;;;5.85;3.03;;;10.20;59.50;;;;;;4929549;29;20032;-68
2021/04/26 19:28:59;;;;;;;3.95;2.65;;;10.10;60.10;;;;;;4930916;29;20039;-67
2021/04/26 19:31:27;;;;;;;9.10;2.55;;;10.10;60.40;;;;;;4930811;29;20055;-67
2021/04/26 19:33:53;;;;;;;10.50;4.57;;;10.00;61.10;;;;;;4930320;29;20055;-68